Time;durP1;ratioP1;P1;durP2;ratioP2;P2;SDS_P1;SDS_P2;PMS_P1;PMS_P2;Temp;Humidity;BMP_temperature;BMP_pressure;BME280_temperature;BME280_humidity;BME280_pressure;Samples;Min_cycle;Max_cycle;Signal;HPM_P1;HPM_P2
2022/08/23 00:01:45;;;;;;;5.77;5.10;;;20.00;99.90;;;;;;5090978;28;20414;-43
2022/08/23 00:04:39;;;;;;;6.13;5.63;;;20.00;99.90;;;;;;5091392;28;20438;-44
2022/08/23 00:07:07;;;;;;;5.67;5.13;;;20.00;99.90;;;;;;5084913;28;20546;-45
2022/08/23 00:09:32;;;;;;;6.27;5.30;;;19.90;99.90;;;;;;5091052;28;20422;-45
2022/08/23 00:12:12;;;;;;;5.50;5.03;;;19.90;99.90;;;;;;5091486;28;20944;-44
2022/08/23 00:14:44;;;;;;;7.40;5.50;;;19.90;99.90;;;;;;5091374;28;20180;-48
2022/08/23 00:17:10;;;;;;;5.50;5.00;;;20.00;99.90;;;;;;5090569;28;20476;-43
2022/08/23 00:19:38;;;;;;;5.63;4.93;;;20.00;99.90;;;;;;5091078;28;20469;-44
2022/08/23 00:22:05;;;;;;;4.90;4.50;;;20.00;99.90;;;;;;5090959;28;20521;-44
2022/08/23 00:24:31;;;;;;;6.37;4.73;;;20.10;99.90;;;;;;5090924;28;20431;-43
2022/08/23 00:27:07;;;;;;;5.50;5.03;;;20.10;99.90;;;;;;5089120;28;20522;-44
2022/08/23 00:29:46;;;;;;;5.20;4.70;;;20.10;99.90;;;;;;5090773;28;20187;-43
2022/08/23 00:32:16;;;;;;;6.07;5.53;;;20.10;99.90;;;;;;5090625;28;20414;-43
2022/08/23 00:34:42;;;;;;;5.90;5.30;;;20.10;99.90;;;;;;5090173;28;20434;-43
2022/08/23 00:37:09;;;;;;;5.83;5.23;;;20.00;99.90;;;;;;5089436;28;20450;-44
2022/08/23 00:39:36;;;;;;;5.73;5.23;;;20.00;99.90;;;;;;5090046;28;20719;-50
2022/08/23 00:47:49;;;;;;;5.30;4.80;;;19.90;99.90;;;;;;5089949;28;20469;-48
2022/08/23 00:50:40;;;;;;;7.80;5.03;;;19.90;99.90;;;;;;5090603;28;20440;-44
2022/08/23 00:53:17;;;;;;;6.90;5.80;;;19.90;99.90;;;;;;5090450;28;20433;-47
2022/08/23 00:55:45;;;;;;;5.40;4.90;;;19.90;99.90;;;;;;5089025;28;20873;-44
2022/08/23 00:58:14;;;;;;;6.40;4.97;;;19.90;99.90;;;;;;5088612;28;20433;-48
2022/08/23 01:00:40;;;;;;;6.90;6.30;;;19.90;99.90;;;;;;5090179;28;20437;-44
2022/08/23 01:03:09;;;;;;;8.10;6.30;;;19.80;99.90;;;;;;5090338;28;20418;-47
2022/08/23 01:06:03;;;;;;;8.00;5.97;;;19.70;99.90;;;;;;5088711;28;20925;-46
2022/08/23 01:08:31;;;;;;;8.73;5.70;;;19.60;99.90;;;;;;5089693;28;20559;-44
2022/08/23 01:11:08;;;;;;;8.03;6.13;;;19.50;99.90;;;;;;5090185;28;20509;-47
2022/08/23 01:13:51;;;;;;;7.47;5.43;;;19.40;99.90;;;;;;5090036;28;20430;-45
2022/08/23 01:16:27;;;;;;;6.43;5.80;;;19.40;99.90;;;;;;5090234;28;21128;-45
2022/08/23 01:18:54;;;;;;;6.50;5.70;;;19.40;99.90;;;;;;5089636;28;20437;-44
2022/08/23 01:21:32;;;;;;;6.97;6.37;;;19.20;99.90;;;;;;5089965;28;20429;-43
2022/08/23 01:24:02;;;;;;;7.10;6.50;;;19.20;99.90;;;;;;5090108;28;20785;-43
2022/08/23 01:26:30;;;;;;;6.40;5.90;;;19.10;99.90;;;;;;5089415;28;20540;-44
2022/08/23 01:28:56;;;;;;;6.77;5.77;;;19.10;99.90;;;;;;5089549;28;20458;-46
2022/08/23 01:31:23;;;;;;;7.23;6.50;;;19.00;99.90;;;;;;5089699;28;20844;-44
2022/08/23 01:33:58;;;;;;;6.67;6.07;;;18.90;99.90;;;;;;5089734;28;20180;-44
2022/08/23 01:36:24;;;;;;;6.90;6.30;;;18.80;99.90;;;;;;5089593;28;20475;-44
2022/08/23 01:38:50;;;;;;;6.33;5.73;;;18.80;99.90;;;;;;5089170;28;20505;-44
2022/08/23 01:41:16;;;;;;;6.60;6.00;;;18.80;99.90;;;;;;5089296;28;20514;-47
2022/08/23 01:43:42;;;;;;;7.70;6.30;;;18.70;99.90;;;;;;5088277;28;20471;-45
2022/08/23 01:46:16;;;;;;;6.43;5.83;;;18.60;99.90;;;;;;5089391;28;20766;-44
2022/08/23 01:48:44;;;;;;;8.67;6.40;;;18.60;99.90;;;;;;5088721;28;20215;-48
2022/08/23 01:51:11;;;;;;;6.53;5.93;;;18.60;99.90;;;;;;5089558;28;20437;-43
2022/08/23 01:53:37;;;;;;;6.90;6.30;;;18.60;99.90;;;;;;5089487;28;20486;-44
2022/08/23 01:56:04;;;;;;;7.87;7.17;;;18.60;99.90;;;;;;5088046;28;20426;-47
2022/08/23 01:58:31;;;;;;;7.20;6.50;;;18.60;99.90;;;;;;5088165;28;20438;-44
2022/08/23 02:00:57;;;;;;;7.17;6.40;;;18.60;99.90;;;;;;5089070;28;20438;-43
2022/08/23 02:03:23;;;;;;;7.23;6.57;;;18.60;99.90;;;;;;5088143;28;20513;-43
2022/08/23 02:05:49;;;;;;;7.57;6.80;;;18.60;99.90;;;;;;5089074;28;20558;-46
2022/08/23 02:11:06;;;;;;;6.43;5.83;;;18.50;99.90;;;;;;5089146;28;20204;-46
2022/08/23 02:13:32;;;;;;;7.40;6.70;;;18.50;99.90;;;;;;5089260;28;20424;-43
2022/08/23 02:15:58;;;;;;;7.70;6.93;;;18.40;99.90;;;;;;5089034;28;20418;-45
2022/08/23 02:18:24;;;;;;;6.87;6.33;;;18.40;99.90;;;;;;5088515;28;20196;-44
2022/08/23 02:20:51;;;;;;;9.07;6.37;;;18.30;99.90;;;;;;5088912;28;20480;-43
2022/08/23 02:23:18;;;;;;;8.03;6.90;;;18.30;99.90;;;;;;5089106;28;20199;-44
2022/08/23 02:25:43;;;;;;;6.70;6.20;;;18.30;99.90;;;;;;5089347;28;20847;-43
2022/08/23 02:28:09;;;;;;;6.30;5.80;;;18.20;99.90;;;;;;5088309;28;20513;-44
2022/08/23 02:30:35;;;;;;;8.17;6.07;;;18.20;99.90;;;;;;5089336;28;20539;-46
2022/08/23 02:33:00;;;;;;;6.20;5.47;;;18.20;99.90;;;;;;5087574;28;20184;-44
2022/08/23 02:35:27;;;;;;;6.50;5.90;;;18.20;99.90;;;;;;5089099;28;20271;-45
2022/08/23 02:37:53;;;;;;;5.87;5.37;;;18.20;99.90;;;;;;5088444;28;20207;-44
2022/08/23 02:40:21;;;;;;;6.60;5.97;;;18.40;99.90;;;;;;5089035;28;20426;-44
2022/08/23 02:42:48;;;;;;;5.33;4.93;;;18.50;99.90;;;;;;5088805;28;20458;-43
2022/08/23 02:45:16;;;;;;;5.50;5.00;;;18.50;99.90;;;;;;5088952;28;21118;-45
2022/08/23 02:47:42;;;;;;;6.20;5.20;;;18.50;99.90;;;;;;5087777;28;20462;-44
2022/08/23 02:50:08;;;;;;;5.20;4.73;;;18.50;99.90;;;;;;5089063;28;20527;-44
2022/08/23 02:52:35;;;;;;;6.20;5.60;;;18.60;99.90;;;;;;5088754;28;20415;-43
2022/08/23 02:55:01;;;;;;;5.40;4.90;;;18.60;99.90;;;;;;5088597;28;20418;-45
2022/08/23 02:57:27;;;;;;;5.47;4.93;;;18.60;99.90;;;;;;5086340;28;20480;-44
2022/08/23 02:59:53;;;;;;;5.80;5.30;;;18.60;99.90;;;;;;5088904;28;20184;-43
2022/08/23 03:02:19;;;;;;;4.97;4.57;;;18.70;99.90;;;;;;5088308;28;20461;-48
2022/08/23 03:04:45;;;;;;;4.93;4.20;;;18.70;99.90;;;;;;5088564;28;20876;-47
2022/08/23 03:07:11;;;;;;;6.30;4.63;;;18.80;99.90;;;;;;5088020;28;20489;-45
2022/08/23 03:09:37;;;;;;;5.70;4.73;;;18.80;99.90;;;;;;5091065;28;20275;-44
2022/08/23 03:12:03;;;;;;;4.90;3.90;;;18.90;99.90;;;;;;5092452;28;20851;-44
2022/08/23 03:14:28;;;;;;;4.80;4.40;;;18.90;99.90;;;;;;5092365;28;20183;-46
2022/08/23 03:16:54;;;;;;;4.97;4.23;;;19.00;99.90;;;;;;5091503;28;20482;-46
2022/08/23 03:19:20;;;;;;;5.00;4.60;;;19.00;99.90;;;;;;5092226;28;20764;-43
2022/08/23 03:21:46;;;;;;;5.20;4.70;;;18.90;99.90;;;;;;5092300;28;20426;-43
2022/08/23 03:24:12;;;;;;;4.30;4.00;;;19.00;99.90;;;;;;5092159;28;20545;-43
2022/08/23 03:26:41;;;;;;;5.67;4.60;;;18.90;99.90;;;;;;5091661;28;20426;-45
2022/08/23 03:29:08;;;;;;;4.80;4.10;;;18.80;99.90;;;;;;5092106;28;20223;-44
2022/08/23 03:31:34;;;;;;;4.53;4.13;;;18.70;99.90;;;;;;5091939;28;20418;-45
2022/08/23 03:34:00;;;;;;;5.27;4.77;;;18.70;99.90;;;;;;5091889;28;20979;-43
2022/08/23 03:36:25;;;;;;;4.63;4.23;;;18.60;99.90;;;;;;5090772;28;20422;-45
2022/08/23 03:38:51;;;;;;;4.77;4.27;;;18.60;99.90;;;;;;5091491;28;20654;-44
2022/08/23 03:41:17;;;;;;;4.67;4.27;;;18.50;99.90;;;;;;5091927;28;20180;-43
2022/08/23 03:43:43;;;;;;;5.73;4.10;;;18.50;99.90;;;;;;5091907;28;20176;-43
2022/08/23 03:46:21;;;;;;;5.13;4.63;;;18.50;99.90;;;;;;5091501;28;20422;-44
2022/08/23 03:48:49;;;;;;;4.43;4.00;;;18.60;99.90;;;;;;5091243;28;20688;-46
2022/08/23 03:51:16;;;;;;;4.60;4.20;;;18.60;99.90;;;;;;5091674;28;20508;-44
2022/08/23 03:53:42;;;;;;;5.27;4.47;;;18.50;99.90;;;;;;5091784;28;20414;-43
2022/08/23 03:56:08;;;;;;;6.00;4.03;;;18.50;99.90;;;;;;5090061;28;20434;-43
2022/08/23 03:58:33;;;;;;;5.57;4.60;;;18.50;99.90;;;;;;5090699;28;20542;-45
2022/08/23 04:00:59;;;;;;;4.27;3.87;;;18.50;99.90;;;;;;5089926;28;20190;-45
2022/08/23 04:03:25;;;;;;;5.10;3.90;;;18.40;99.90;;;;;;5091324;28;20596;-45
2022/08/23 04:05:51;;;;;;;4.60;4.10;;;18.40;99.90;;;;;;5091404;28;20717;-45
2022/08/23 04:08:17;;;;;;;4.40;4.00;;;18.30;99.90;;;;;;5090727;28;20477;-43
2022/08/23 04:10:43;;;;;;;4.37;4.03;;;18.40;99.90;;;;;;5091364;28;20188;-43
2022/08/23 04:13:10;;;;;;;4.93;4.20;;;18.30;99.90;;;;;;5091013;28;20952;-44
2022/08/23 04:15:36;;;;;;;4.77;4.33;;;18.30;99.90;;;;;;5091156;28;20433;-43
2022/08/23 04:18:02;;;;;;;4.93;4.27;;;18.30;99.90;;;;;;5090580;28;20427;-44
2022/08/23 04:20:28;;;;;;;4.77;3.47;;;18.30;99.90;;;;;;5090349;28;20952;-44
2022/08/23 04:22:55;;;;;;;4.20;3.80;;;18.30;99.90;;;;;;5090969;28;20511;-46
2022/08/23 04:25:21;;;;;;;4.80;4.37;;;18.30;99.90;;;;;;5090826;28;20422;-45
2022/08/23 04:27:48;;;;;;;4.23;3.93;;;18.30;99.90;;;;;;5090186;28;20457;-43
2022/08/23 04:30:14;;;;;;;4.80;4.30;;;18.30;99.90;;;;;;5091045;28;20497;-44
2022/08/23 04:32:39;;;;;;;4.83;4.43;;;18.30;99.90;;;;;;5090117;28;20513;-48
2022/08/23 04:35:05;;;;;;;5.63;4.30;;;18.20;99.90;;;;;;5090328;28;20723;-44
2022/08/23 04:37:31;;;;;;;4.77;4.07;;;18.10;99.90;;;;;;5089620;28;20210;-51
2022/08/23 04:42:41;;;;;;;5.20;4.40;;;18.10;99.90;;;;;;5090700;28;20255;-48
2022/08/23 04:45:08;;;;;;;4.53;4.20;;;18.00;99.90;;;;;;5090420;28;20437;-46
2022/08/23 04:47:37;;;;;;;3.80;3.50;;;18.00;99.90;;;;;;5089674;28;20804;-48
2022/08/23 04:50:04;;;;;;;5.20;3.80;;;18.00;99.90;;;;;;5090284;28;20418;-47
2022/08/23 04:52:29;;;;;;;3.70;3.40;;;18.00;99.90;;;;;;5087145;28;20438;-44
2022/08/23 04:54:55;;;;;;;4.60;4.13;;;18.10;99.90;;;;;;5085576;28;20427;-48
2022/08/23 04:57:21;;;;;;;4.40;3.63;;;18.00;99.90;;;;;;5081116;28;20184;-44
2022/08/23 04:59:46;;;;;;;4.20;3.87;;;18.00;99.90;;;;;;5089877;28;20469;-43
2022/08/23 05:02:13;;;;;;;6.33;4.37;;;18.00;99.90;;;;;;5090237;28;20192;-46
2022/08/23 05:04:40;;;;;;;4.43;4.03;;;18.00;99.90;;;;;;5090205;28;20273;-47
2022/08/23 05:07:05;;;;;;;5.03;4.07;;;18.10;99.90;;;;;;5088253;28;20523;-48
2022/08/23 05:09:31;;;;;;;4.90;4.40;;;18.10;99.90;;;;;;5090320;28;20422;-44
2022/08/23 05:11:57;;;;;;;4.77;4.00;;;18.10;99.90;;;;;;5090137;28;20188;-44
2022/08/23 05:14:22;;;;;;;4.10;3.60;;;18.20;99.90;;;;;;5088950;28;20184;-43
2022/08/23 05:16:48;;;;;;;5.23;3.83;;;18.30;99.90;;;;;;5089330;28;20199;-44
2022/08/23 05:19:14;;;;;;;4.03;3.33;;;18.40;99.90;;;;;;5089896;28;20184;-46
2022/08/23 05:21:39;;;;;;;5.00;3.93;;;18.50;99.90;;;;;;5089807;28;20248;-49
2022/08/23 05:24:05;;;;;;;4.20;3.20;;;18.60;99.90;;;;;;5081041;28;20184;-45
2022/08/23 05:26:31;;;;;;;5.30;3.33;;;18.60;99.90;;;;;;5089372;28;20189;-43
2022/08/23 05:28:57;;;;;;;4.33;3.87;;;18.80;99.90;;;;;;5087979;28;20184;-45
2022/08/23 05:31:26;;;;;;;4.30;3.37;;;18.80;99.90;;;;;;5089531;28;20245;-42
2022/08/23 05:33:52;;;;;;;3.80;3.30;;;18.90;99.90;;;;;;5088786;28;20206;-43
2022/08/23 05:36:18;;;;;;;4.80;3.20;;;19.00;99.90;;;;;;5089564;28;20509;-45
2022/08/23 05:38:45;;;;;;;4.23;3.37;;;19.10;99.90;;;;;;5088721;28;21333;-43
2022/08/23 05:41:13;;;;;;;4.40;3.97;;;19.20;99.90;;;;;;5089272;28;20636;-43
2022/08/23 05:43:38;;;;;;;5.43;3.80;;;19.30;99.90;;;;;;5089464;28;20410;-42
2022/08/23 05:46:09;;;;;;;5.43;3.43;;;19.30;99.90;;;;;;5089117;28;20492;-44
2022/08/23 05:48:36;;;;;;;3.70;3.40;;;19.50;99.90;;;;;;5088565;28;20238;-43
2022/08/23 05:51:27;;;;;;;6.20;3.73;;;19.60;99.90;;;;;;5088957;28;20509;-43
2022/08/23 05:53:56;;;;;;;4.67;3.53;;;19.80;99.90;;;;;;5089386;28;20487;-43
2022/08/23 05:56:27;;;;;;;5.93;3.90;;;20.00;99.90;;;;;;5088093;28;20424;-45
2022/08/23 05:58:55;;;;;;;3.33;3.03;;;20.10;99.90;;;;;;5088797;28;20422;-42
2022/08/23 06:01:21;;;;;;;5.07;3.40;;;20.30;99.90;;;;;;5084729;28;20917;-43
2022/08/23 06:03:48;;;;;;;4.90;3.43;;;20.50;99.90;;;;;;5088782;28;20439;-44
2022/08/23 06:06:15;;;;;;;6.60;3.63;;;20.60;99.90;;;;;;5089197;28;20454;-44
2022/08/23 06:08:45;;;;;;;7.43;4.00;;;20.80;99.90;;;;;;5088558;28;20486;-44
2022/08/23 06:11:21;;;;;;;7.23;3.77;;;20.90;99.90;;;;;;5088954;28;20743;-47
2022/08/23 06:13:52;;;;;;;8.00;3.93;;;21.00;99.90;;;;;;5089101;28;20422;-43
2022/08/23 06:16:23;;;;;;;4.40;3.70;;;21.20;99.90;;;;;;5084498;28;20933;-44
2022/08/23 06:18:49;;;;;;;3.80;3.23;;;21.30;99.90;;;;;;5088241;28;20416;-46
2022/08/23 06:21:15;;;;;;;5.47;3.43;;;21.40;99.90;;;;;;5088451;28;20984;-43
2022/08/23 06:23:42;;;;;;;6.10;3.20;;;21.50;99.90;;;;;;5088285;28;20433;-43
2022/08/23 06:26:17;;;;;;;4.70;3.43;;;21.60;99.90;;;;;;5089244;28;20867;-44
2022/08/23 06:28:46;;;;;;;3.43;2.80;;;21.70;99.90;;;;;;5092235;28;20465;-43
2022/08/23 06:31:11;;;;;;;3.53;3.23;;;21.80;99.90;;;;;;5088031;28;20464;-44
2022/08/23 06:33:40;;;;;;;3.40;3.00;;;22.00;99.90;;;;;;5085540;28;20909;-44
2022/08/23 06:36:10;;;;;;;5.10;3.13;;;22.10;99.40;;;;;;5087567;28;20263;-43
2022/08/23 06:38:36;;;;;;;4.40;3.30;;;22.10;99.30;;;;;;5085335;28;20427;-44
2022/08/23 06:41:11;;;;;;;3.87;3.20;;;22.20;99.10;;;;;;5088348;28;21048;-44
2022/08/23 06:43:38;;;;;;;5.20;3.50;;;22.30;99.10;;;;;;5087152;28;20236;-44
2022/08/23 06:46:24;;;;;;;3.80;3.30;;;22.40;98.60;;;;;;5091764;28;20484;-44
2022/08/23 06:48:52;;;;;;;5.27;3.50;;;22.40;98.70;;;;;;5090011;28;20465;-44
2022/08/23 06:51:25;;;;;;;5.93;3.13;;;22.60;98.80;;;;;;5091745;28;20472;-43
2022/08/23 06:53:53;;;;;;;4.43;2.83;;;22.70;98.40;;;;;;5093024;28;20449;-46
2022/08/23 06:56:21;;;;;;;3.87;3.43;;;22.80;98.10;;;;;;5090064;28;20410;-44
2022/08/23 06:58:46;;;;;;;4.27;3.00;;;22.90;97.90;;;;;;5092362;28;20452;-43
2022/08/23 07:01:24;;;;;;;5.73;3.40;;;23.00;97.80;;;;;;5092471;28;20418;-47
2022/08/23 07:03:56;;;;;;;3.67;3.37;;;23.10;97.70;;;;;;5092232;28;20437;-46
2022/08/23 07:06:24;;;;;;;4.00;3.37;;;23.10;97.30;;;;;;5091091;28;20498;-44
2022/08/23 07:08:50;;;;;;;3.50;3.20;;;23.20;97.40;;;;;;5091922;28;20492;-43
2022/08/23 07:11:17;;;;;;;3.13;2.93;;;23.20;96.80;;;;;;5092251;28;20444;-43
2022/08/23 07:13:43;;;;;;;5.47;3.90;;;23.30;97.30;;;;;;5092504;28;20444;-45
2022/08/23 07:16:09;;;;;;;4.00;3.70;;;23.40;97.00;;;;;;5092174;28;20513;-44
2022/08/23 07:18:35;;;;;;;4.30;3.17;;;23.50;97.20;;;;;;5085038;28;20457;-45
2022/08/23 07:21:03;;;;;;;3.83;3.53;;;23.60;97.10;;;;;;5085829;28;20423;-44
2022/08/23 07:23:32;;;;;;;3.67;3.07;;;23.60;96.40;;;;;;5092311;28;20176;-44
2022/08/23 07:26:05;;;;;;;6.37;3.13;;;23.70;96.40;;;;;;5090870;28;20454;-45
2022/08/23 07:28:30;;;;;;;3.80;3.43;;;23.70;96.30;;;;;;5091425;28;20469;-47
2022/08/23 07:31:09;;;;;;;3.80;3.13;;;23.70;95.90;;;;;;5090829;28;20465;-43
2022/08/23 07:33:36;;;;;;;3.60;3.30;;;23.70;95.90;;;;;;5091796;28;20252;-43
2022/08/23 07:36:02;;;;;;;3.73;3.30;;;23.70;96.30;;;;;;5092008;28;20430;-44
2022/08/23 07:38:28;;;;;;;6.90;3.90;;;23.60;96.40;;;;;;5091050;28;20517;-43
2022/08/23 07:40:54;;;;;;;4.50;3.10;;;23.70;96.40;;;;;;5091924;28;20438;-44
2022/08/23 07:43:20;;;;;;;3.50;3.20;;;23.70;96.60;;;;;;5091642;28;20430;-49
2022/08/23 07:45:47;;;;;;;5.00;3.27;;;23.80;97.00;;;;;;5090048;28;20915;-43
2022/08/23 07:48:13;;;;;;;3.07;2.83;;;23.80;97.00;;;;;;5090777;28;20220;-44
2022/08/23 07:50:40;;;;;;;4.17;3.80;;;23.90;96.70;;;;;;5091592;28;20414;-42
2022/08/23 07:53:07;;;;;;;3.60;3.10;;;23.80;96.00;;;;;;5091608;28;20422;-43
2022/08/23 07:55:33;;;;;;;4.80;3.83;;;23.80;96.00;;;;;;5089756;28;20454;-45
2022/08/23 07:57:59;;;;;;;5.40;3.20;;;23.90;96.80;;;;;;5090745;28;21007;-43
2022/08/23 08:00:26;;;;;;;5.37;3.30;;;24.00;96.10;;;;;;5069850;28;20435;-43
2022/08/23 08:02:52;;;;;;;4.50;3.73;;;24.00;95.60;;;;;;5081638;28;20423;-45
2022/08/23 08:05:18;;;;;;;4.17;3.57;;;24.00;95.60;;;;;;5089975;28;20544;-44
2022/08/23 08:07:43;;;;;;;3.77;3.33;;;24.00;95.70;;;;;;5090796;28;20454;-44
2022/08/23 08:10:09;;;;;;;4.37;3.07;;;24.00;95.70;;;;;;5091004;28;20513;-44
2022/08/23 08:12:35;;;;;;;4.70;3.80;;;24.00;96.20;;;;;;5091206;28;20210;-45
2022/08/23 08:15:01;;;;;;;4.00;3.60;;;24.00;96.40;;;;;;5090871;28;20184;-47
2022/08/23 08:17:27;;;;;;;5.40;4.00;;;24.00;96.20;;;;;;5090674;28;20492;-43
2022/08/23 08:19:52;;;;;;;6.03;3.87;;;24.00;96.10;;;;;;5085472;28;20200;-44
2022/08/23 08:22:18;;;;;;;5.63;4.13;;;24.00;96.30;;;;;;5083020;28;20259;-42
2022/08/23 08:24:44;;;;;;;4.57;4.17;;;24.00;95.60;;;;;;5090923;28;20222;-43
2022/08/23 08:27:10;;;;;;;5.17;4.20;;;24.00;96.10;;;;;;5090135;28;20762;-45
2022/08/23 08:29:35;;;;;;;4.27;3.87;;;24.10;95.90;;;;;;5090715;28;20180;-44
2022/08/23 08:32:02;;;;;;;4.73;3.53;;;24.10;95.80;;;;;;5090791;28;20418;-43
2022/08/23 08:34:27;;;;;;;4.20;3.80;;;24.10;96.30;;;;;;5090299;28;20223;-46
2022/08/23 08:36:57;;;;;;;4.10;3.77;;;24.20;95.90;;;;;;5089637;28;20415;-43
2022/08/23 08:39:26;;;;;;;4.83;3.70;;;24.20;95.90;;;;;;5090230;28;20185;-50
2022/08/23 08:42:07;;;;;;;8.30;3.97;;;24.20;96.10;;;;;;5090502;28;20473;-47
2022/08/23 08:44:39;;;;;;;6.03;4.17;;;24.20;95.90;;;;;;5090649;28;20472;-48
2022/08/23 08:47:31;;;;;;;7.33;4.43;;;24.20;96.20;;;;;;5089898;28;20458;-45
2022/08/23 08:50:04;;;;;;;6.73;4.20;;;24.30;95.90;;;;;;5090485;28;20848;-42
2022/08/23 08:52:38;;;;;;;4.83;3.93;;;24.30;96.10;;;;;;5090223;28;20418;-47
2022/08/23 08:55:09;;;;;;;4.77;4.30;;;24.40;95.60;;;;;;5088847;28;20414;-46
2022/08/23 08:57:42;;;;;;;4.23;3.87;;;24.40;96.10;;;;;;5088981;28;20469;-42
2022/08/23 09:00:17;;;;;;;4.97;4.47;;;24.50;95.90;;;;;;5088963;28;20876;-43
2022/08/23 09:02:44;;;;;;;4.97;4.33;;;24.60;95.20;;;;;;5089935;28;20425;-43
2022/08/23 09:05:21;;;;;;;5.80;4.47;;;24.70;95.60;;;;;;5088560;28;20446;-47
2022/08/23 09:08:04;;;;;;;6.40;4.50;;;24.80;95.70;;;;;;5089500;28;20458;-45
2022/08/23 09:11:23;;;;;;;4.67;4.27;;;24.80;94.50;;;;;;5089949;28;20410;-43
2022/08/23 09:14:08;;;;;;;4.73;3.83;;;24.80;95.50;;;;;;5046862;28;20436;-46
2022/08/23 09:16:37;;;;;;;5.63;4.60;;;24.90;95.10;;;;;;5087730;28;20498;-42
2022/08/23 09:19:03;;;;;;;7.20;4.30;;;25.00;94.60;;;;;;5089802;28;20458;-43
2022/08/23 09:21:38;;;;;;;6.40;4.43;;;25.00;94.60;;;;;;5075887;28;20449;-43
2022/08/23 09:24:04;;;;;;;5.60;4.63;;;25.20;94.90;;;;;;5088634;28;20425;-47
2022/08/23 09:26:30;;;;;;;6.57;4.20;;;25.20;94.60;;;;;;5089592;28;20773;-43
2022/08/23 09:29:20;;;;;;;6.27;4.30;;;25.30;94.40;;;;;;5089597;28;20242;-43
2022/08/23 09:31:51;;;;;;;5.13;4.70;;;25.40;93.90;;;;;;5081811;28;20287;-42
2022/08/23 09:34:38;;;;;;;5.47;4.97;;;25.50;93.30;;;;;;5089703;28;20463;-44
2022/08/23 09:37:24;;;;;;;5.00;4.50;;;25.60;93.40;;;;;;5088842;28;20491;-43
2022/08/23 09:40:11;;;;;;;7.90;4.97;;;25.70;93.60;;;;;;5088384;28;20417;-43
2022/08/23 09:42:39;;;;;;;5.83;4.80;;;25.90;94.20;;;;;;5087701;28;20483;-43
2022/08/23 09:45:22;;;;;;;6.13;4.43;;;26.00;93.00;;;;;;5089356;28;21082;-42
2022/08/23 09:47:48;;;;;;;5.20;4.70;;;26.20;92.80;;;;;;5087483;28;20477;-46
2022/08/23 09:50:28;;;;;;;6.30;4.57;;;26.20;92.50;;;;;;5089205;28;20423;-42
2022/08/23 09:53:01;;;;;;;4.50;4.10;;;26.30;93.30;;;;;;5089288;28;20287;-43
2022/08/23 09:55:37;;;;;;;5.70;5.20;;;26.50;93.20;;;;;;5088421;28;20426;-43
2022/08/23 09:58:18;;;;;;;5.23;4.53;;;26.60;92.40;;;;;;5088647;28;20418;-45
2022/08/23 10:01:10;;;;;;;6.03;4.70;;;26.70;91.80;;;;;;5089414;28;20430;-43
2022/08/23 10:03:36;;;;;;;6.00;4.27;;;26.80;92.80;;;;;;5087522;28;20426;-43
2022/08/23 10:06:02;;;;;;;6.40;5.20;;;27.00;92.40;;;;;;5089268;28;20435;-45
2022/08/23 10:08:32;;;;;;;5.30;4.80;;;27.10;91.70;;;;;;5088600;28;21114;-45
2022/08/23 10:11:09;;;;;;;4.87;4.50;;;27.20;91.20;;;;;;5089219;28;20272;-45
2022/08/23 10:13:36;;;;;;;5.27;4.60;;;27.30;90.90;;;;;;5088901;28;20422;-45
2022/08/23 10:16:16;;;;;;;5.40;4.90;;;27.30;91.60;;;;;;5089055;28;20431;-43
2022/08/23 10:19:09;;;;;;;6.97;5.60;;;27.30;91.20;;;;;;5087918;28;20801;-43
2022/08/23 10:21:40;;;;;;;7.33;5.20;;;27.30;91.20;;;;;;5088828;28;20422;-43
2022/08/23 10:24:30;;;;;;;6.73;5.40;;;27.50;92.40;;;;;;5088890;28;20449;-43
2022/08/23 10:30:22;;;;;;;7.80;5.37;;;27.60;90.00;;;;;;5087275;28;20411;-42
2022/08/23 10:33:02;;;;;;;5.17;4.53;;;27.60;88.90;;;;;;5088995;28;21035;-45
2022/08/23 10:36:07;;;;;;;6.10;4.60;;;27.60;89.40;;;;;;5088863;28;20421;-45
2022/08/23 10:38:41;;;;;;;6.27;4.90;;;27.70;89.90;;;;;;5088117;28;20422;-43
2022/08/23 10:41:19;;;;;;;5.83;5.23;;;27.80;89.60;;;;;;5088787;28;20432;-44
2022/08/23 10:44:02;;;;;;;5.07;4.50;;;27.80;87.80;;;;;;5088736;28;20441;-46
2022/08/23 10:46:30;;;;;;;6.03;4.97;;;27.80;86.50;;;;;;5088643;28;20430;-44
2022/08/23 10:49:01;;;;;;;4.87;4.33;;;27.90;91.00;;;;;;5088089;28;20477;-45
2022/08/23 10:51:33;;;;;;;6.30;5.27;;;28.00;89.20;;;;;;5088604;28;20423;-43
2022/08/23 10:54:34;;;;;;;4.90;4.50;;;28.10;86.80;;;;;;5087560;28;20426;-44
2022/08/23 10:57:03;;;;;;;6.73;4.53;;;28.10;89.60;;;;;;5084435;28;20766;-45
2022/08/23 10:59:30;;;;;;;5.13;4.60;;;28.30;88.60;;;;;;5087278;28;20422;-43
2022/08/23 11:02:18;;;;;;;5.10;4.70;;;28.40;89.20;;;;;;5088797;28;20815;-47
2022/08/23 11:04:50;;;;;;;6.03;4.87;;;28.40;84.40;;;;;;5088664;28;21052;-44
2022/08/23 11:07:40;;;;;;;4.90;4.50;;;28.40;82.90;;;;;;5088145;28;20469;-43
2022/08/23 11:10:28;;;;;;;9.53;4.80;;;28.40;85.90;;;;;;5088531;28;20430;-42
2022/08/23 11:12:58;;;;;;;5.07;4.67;;;28.50;84.40;;;;;;5088439;28;20414;-45
2022/08/23 11:15:30;;;;;;;9.27;4.70;;;28.40;83.50;;;;;;5088658;28;20924;-44
2022/08/23 11:17:59;;;;;;;5.27;4.87;;;28.50;87.30;;;;;;5087747;28;21038;-44
2022/08/23 11:20:50;;;;;;;5.33;4.80;;;28.60;85.40;;;;;;5088280;28;20430;-43
2022/08/23 11:23:41;;;;;;;5.23;4.60;;;28.70;87.10;;;;;;5088393;28;20430;-45
2022/08/23 11:26:30;;;;;;;5.00;4.50;;;28.80;83.10;;;;;;5083164;28;20521;-45
2022/08/23 11:29:05;;;;;;;5.20;4.70;;;28.90;82.80;;;;;;5086328;28;20636;-43
2022/08/23 11:31:37;;;;;;;6.80;4.87;;;29.00;84.00;;;;;;5090388;28;20975;-45
2022/08/23 11:34:22;;;;;;;5.33;4.80;;;29.10;84.00;;;;;;5091820;28;20430;-45
2022/08/23 11:37:19;;;;;;;5.23;4.40;;;29.10;81.00;;;;;;5091317;28;20422;-46
2022/08/23 11:39:57;;;;;;;5.50;4.40;;;29.10;78.10;;;;;;5090480;28;20422;-45
2022/08/23 11:42:33;;;;;;;4.17;3.77;;;29.20;77.10;;;;;;5092078;28;20410;-44
2022/08/23 11:45:00;;;;;;;4.37;4.07;;;29.20;76.90;;;;;;5091740;28;20425;-44
2022/08/23 11:47:29;;;;;;;5.20;4.50;;;29.30;78.60;;;;;;5089532;28;20492;-43
2022/08/23 11:50:18;;;;;;;5.57;4.37;;;29.30;77.90;;;;;;5091716;28;20438;-42
2022/08/23 11:52:47;;;;;;;4.90;4.40;;;29.30;76.40;;;;;;5091730;28;20419;-42
2022/08/23 11:55:36;;;;;;;6.73;3.93;;;29.40;79.40;;;;;;5091533;28;20765;-44
2022/08/23 11:58:20;;;;;;;5.70;4.93;;;29.40;81.00;;;;;;5090884;28;20972;-43
2022/08/23 12:01:09;;;;;;;5.23;4.73;;;29.40;77.60;;;;;;5091476;28;20865;-42
2022/08/23 12:03:54;;;;;;;5.30;4.20;;;29.40;78.40;;;;;;5091376;28;20754;-43
2022/08/23 12:06:41;;;;;;;4.90;4.50;;;29.40;76.60;;;;;;5091167;28;20497;-45
2022/08/23 12:09:34;;;;;;;4.93;4.20;;;29.50;82.20;;;;;;5091251;28;20489;-46
2022/08/23 12:12:00;;;;;;;5.20;4.50;;;29.50;75.30;;;;;;5083854;28;20503;-43
2022/08/23 12:14:41;;;;;;;4.30;4.00;;;29.40;74.60;;;;;;5090870;28;20804;-44
2022/08/23 12:17:17;;;;;;;4.23;3.90;;;29.40;76.70;;;;;;5090464;28;20776;-43
2022/08/23 12:20:09;;;;;;;5.50;4.13;;;29.60;75.20;;;;;;5090814;28;20525;-44
2022/08/23 12:22:54;;;;;;;4.87;4.30;;;29.50;71.90;;;;;;5085200;28;20537;-43
2022/08/23 12:25:21;;;;;;;6.43;4.27;;;29.40;72.50;;;;;;5091239;28;20417;-45
2022/08/23 12:28:28;;;;;;;5.23;4.30;;;29.30;73.10;;;;;;5089902;28;20473;-45
2022/08/23 12:31:00;;;;;;;6.07;3.87;;;29.40;77.30;;;;;;5086081;28;20438;-44
2022/08/23 12:33:35;;;;;;;4.80;4.10;;;29.40;78.20;;;;;;5090737;28;20422;-45
2022/08/23 12:36:19;;;;;;;4.60;4.20;;;29.50;77.30;;;;;;5090993;28;20426;-43
2022/08/23 12:38:51;;;;;;;4.50;4.10;;;29.70;76.60;;;;;;5090226;28;20428;-44
2022/08/23 12:41:32;;;;;;;5.17;3.80;;;29.70;77.30;;;;;;5090323;28;20423;-43
2022/08/23 12:44:06;;;;;;;4.10;3.70;;;29.80;74.40;;;;;;5090703;28;20945;-44
2022/08/23 12:46:48;;;;;;;4.43;4.13;;;29.90;73.00;;;;;;5090180;28;20487;-44
2022/08/23 12:49:34;;;;;;;4.93;3.83;;;29.90;75.00;;;;;;5090546;28;20411;-45
2022/08/23 12:52:05;;;;;;;4.73;4.27;;;30.00;74.00;;;;;;5089817;28;20986;-43
2022/08/23 12:54:43;;;;;;;4.83;3.90;;;30.10;74.30;;;;;;5087558;28;20403;-44
2022/08/23 12:57:18;;;;;;;4.07;3.77;;;30.10;72.90;;;;;;5085111;28;20437;-43
2022/08/23 13:00:07;;;;;;;4.37;3.80;;;30.10;76.00;;;;;;5085320;28;20430;-44
2022/08/23 13:02:34;;;;;;;5.23;3.73;;;30.20;75.20;;;;;;5086410;28;20426;-47
2022/08/23 13:05:08;;;;;;;4.30;3.90;;;30.20;72.90;;;;;;5089709;28;20941;-43
2022/08/23 13:07:36;;;;;;;8.87;4.13;;;30.20;68.60;;;;;;5089210;28;20497;-43
2022/08/23 13:10:02;;;;;;;4.57;4.00;;;30.20;70.80;;;;;;5089817;28;20427;-47
2022/08/23 13:12:27;;;;;;;4.23;3.83;;;30.10;69.00;;;;;;5089820;28;20434;-48
2022/08/23 13:14:54;;;;;;;5.00;3.83;;;30.00;71.60;;;;;;5088094;28;20271;-49
2022/08/23 13:17:27;;;;;;;3.90;3.60;;;30.00;70.70;;;;;;5089166;28;20801;-43
2022/08/23 13:20:00;;;;;;;3.87;3.47;;;30.10;69.80;;;;;;5082993;28;20419;-43
2022/08/23 13:22:27;;;;;;;6.20;3.77;;;30.10;71.80;;;;;;5082443;28;20489;-49
2022/08/23 13:25:08;;;;;;;6.10;3.27;;;30.10;66.50;;;;;;5089631;28;20445;-44